Terminal Aerodrome Forecast
Issued by NWS

Home | Current Version | Previous Version | Graphics & Text | Print | Product List | Glossary On
Versions: 1 2 3 4 5 6 7 8 9 10
000
FTUS43 KTOP 242000 AAA
TAFMHK
TAF AMD
KMHK 242051Z 2421/2518 27008KT P6SM BKN019
     FM242300 22006KT P6SM SKC
     FM251200 20012KT P6SM SKC
     FM251600 19019G29KT P6SM SCT250=

USA.gov is the U.S. government's official web portal to all federal, state and local government web resources and services.